createdAt,value
2023-01-30T00:01:47.921Z,-2.83
2023-01-30T00:04:17.362Z,-2.81
2023-01-30T00:06:45.567Z,-2.73
2023-01-30T00:09:15.100Z,-2.76
2023-01-30T00:11:43.225Z,-2.83
2023-01-30T00:14:11.360Z,-2.75
2023-01-30T00:16:39.484Z,-2.73
2023-01-30T00:19:07.583Z,-2.85
2023-01-30T00:21:35.578Z,-2.77
2023-01-30T00:24:03.961Z,-2.74
2023-01-30T00:26:32.074Z,-2.69
2023-01-30T00:28:59.999Z,-2.70
2023-01-30T00:31:28.026Z,-2.64
2023-01-30T00:33:55.915Z,-2.60
2023-01-30T00:36:24.869Z,-2.55
2023-01-30T00:38:52.893Z,-2.49
2023-01-30T00:41:20.798Z,-2.48
2023-01-30T00:44:07.590Z,-2.46
2023-01-30T00:46:54.720Z,-2.59
2023-01-30T00:49:22.628Z,-2.58
2023-01-30T00:51:50.621Z,-2.64
2023-01-30T00:54:18.545Z,-2.71
2023-01-30T00:56:46.484Z,-2.64
2023-01-30T00:59:14.447Z,-2.66
2023-01-30T01:01:42.461Z,-2.66
2023-01-30T01:04:10.732Z,-2.68
2023-01-30T01:06:38.831Z,-2.70
2023-01-30T01:09:07.400Z,-2.68
2023-01-30T01:11:35.375Z,-2.73
2023-01-30T01:14:04.347Z,-2.74
2023-01-30T01:16:33.011Z,-2.73
2023-01-30T01:19:01.363Z,-2.80
2023-01-30T01:21:29.350Z,-2.82
2023-01-30T01:23:58.528Z,-2.81
2023-01-30T01:26:26.908Z,-2.78
2023-01-30T01:28:59.118Z,-2.69
2023-01-30T01:31:27.217Z,-2.82
2023-01-30T01:33:56.899Z,-2.97
2023-01-30T01:36:52.163Z,-2.86
2023-01-30T01:39:14.768Z,-2.91
2023-01-30T01:41:43.335Z,-2.95
2023-01-30T01:44:12.553Z,-2.94
2023-01-30T01:46:44.439Z,-3.00
2023-01-30T01:49:15.354Z,-3.12
2023-01-30T01:51:49.701Z,-3.20
2023-01-30T01:54:21.341Z,-3.30
2023-01-30T01:56:50.338Z,-3.28
2023-01-30T01:59:24.940Z,-3.30
2023-01-30T02:01:55.381Z,-3.27
2023-01-30T02:04:47.042Z,-3.23
2023-01-30T02:07:16.171Z,-3.20
2023-01-30T02:09:44.652Z,-3.17
2023-01-30T02:12:14.770Z,-3.24
2023-01-30T02:14:43.270Z,-3.25
2023-01-30T02:17:14.664Z,-3.27
2023-01-30T02:20:12.169Z,-3.32
2023-01-30T02:22:40.252Z,-3.26
2023-01-30T02:25:20.600Z,-3.20
2023-01-30T02:27:49.004Z,-3.11
2023-01-30T02:30:20.072Z,-3.07
2023-01-30T02:32:57.450Z,-3.15
2023-01-30T02:35:41.025Z,-3.13
2023-01-30T02:38:12.044Z,-3.03
2023-01-30T02:40:40.028Z,-3.09
2023-01-30T02:43:11.653Z,-3.14
2023-01-30T02:46:02.787Z,-3.13
2023-01-30T02:48:51.310Z,-3.05
2023-01-30T02:51:34.503Z,-3.02
2023-01-30T02:54:02.498Z,-2.98
2023-01-30T02:56:30.374Z,-2.96
2023-01-30T02:59:00.809Z,-2.89
2023-01-30T03:01:41.022Z,-2.88
2023-01-30T03:04:31.359Z,-2.86
2023-01-30T03:07:18.065Z,-2.83
2023-01-30T03:09:49.935Z,-3.03
2023-01-30T03:12:23.435Z,-2.98
2023-01-30T03:15:05.655Z,-3.10
2023-01-30T03:17:35.269Z,-3.03
2023-01-30T03:20:04.376Z,-3.08
2023-01-30T03:22:33.469Z,-3.09
2023-01-30T03:25:01.667Z,-3.08
2023-01-30T03:27:30.557Z,-3.11
2023-01-30T03:29:58.640Z,-3.10
2023-01-30T03:32:26.815Z,-3.08
2023-01-30T03:34:54.889Z,-3.12
2023-01-30T03:37:23.073Z,-3.08
2023-01-30T03:39:51.280Z,-3.04
2023-01-30T03:42:19.428Z,-3.01
2023-01-30T03:44:47.381Z,-2.97
2023-01-30T03:47:15.593Z,-3.01
2023-01-30T03:49:43.577Z,-2.99
2023-01-30T03:52:11.524Z,-2.99
2023-01-30T03:54:39.695Z,-2.94
2023-01-30T03:57:07.702Z,-2.92
2023-01-30T03:59:35.686Z,-3.00
2023-01-30T04:02:07.221Z,-3.00
2023-01-30T04:04:36.044Z,-3.11
2023-01-30T04:07:05.246Z,-3.12
2023-01-30T04:09:33.836Z,-3.11
2023-01-30T04:12:02.818Z,-3.23
2023-01-30T04:14:33.882Z,-3.19
2023-01-30T04:17:13.496Z,-3.17
2023-01-30T04:20:01.314Z,-3.15
2023-01-30T04:22:31.403Z,-3.15
2023-01-30T04:24:59.402Z,-3.25
2023-01-30T04:27:27.338Z,-3.39
2023-01-30T04:30:08.803Z,-3.45
2023-01-30T04:32:36.685Z,-3.48
2023-01-30T04:35:05.222Z,-3.54
2023-01-30T04:37:33.135Z,-3.65
2023-01-30T04:40:01.172Z,-3.67
2023-01-30T04:42:29.870Z,-3.74
2023-01-30T04:45:28.718Z,-3.80
2023-01-30T04:47:57.353Z,-3.88
2023-01-30T04:50:25.444Z,-3.92
2023-01-30T04:52:53.277Z,-4.09
2023-01-30T04:55:21.190Z,-4.20
2023-01-30T04:57:49.163Z,-4.29
2023-01-30T05:00:17.546Z,-4.37
2023-01-30T05:02:51.548Z,-4.46
2023-01-30T05:05:19.849Z,-4.55
2023-01-30T05:07:48.223Z,-4.53
2023-01-30T05:10:16.774Z,-4.55
2023-01-30T05:12:45.148Z,-4.58
2023-01-30T05:15:13.672Z,-4.59
2023-01-30T05:17:43.785Z,-4.60
2023-01-30T05:20:13.741Z,-4.71
2023-01-30T05:22:41.765Z,-4.76
2023-01-30T05:25:09.931Z,-4.85
2023-01-30T05:27:37.955Z,-4.95
2023-01-30T05:30:06.269Z,-5.04
2023-01-30T05:32:34.205Z,-5.18
2023-01-30T05:35:02.200Z,-5.29
2023-01-30T05:37:30.124Z,-5.36
2023-01-30T05:39:58.161Z,-5.44
2023-01-30T05:42:26.120Z,-5.43
2023-01-30T05:44:53.994Z,-5.40
2023-01-30T05:47:22.177Z,-5.39
2023-01-30T05:49:50.347Z,-5.38
2023-01-30T05:52:18.416Z,-5.40
2023-01-30T05:54:46.295Z,-5.39
2023-01-30T05:57:14.224Z,-5.34
2023-01-30T05:59:42.192Z,-5.40
2023-01-30T06:02:11.257Z,-5.41
2023-01-30T06:04:40.324Z,-5.49
2023-01-30T06:07:08.404Z,-5.51
2023-01-30T06:09:36.477Z,-5.58
2023-01-30T06:12:04.734Z,-5.60
2023-01-30T06:14:32.744Z,-5.59
2023-01-30T06:17:00.946Z,-5.64
2023-01-30T06:19:28.926Z,-5.66
2023-01-30T06:21:56.870Z,-5.69
2023-01-30T06:24:24.914Z,-5.72
2023-01-30T06:26:53.138Z,-5.68
2023-01-30T06:29:21.473Z,-5.73
2023-01-30T06:31:50.178Z,-5.79
2023-01-30T06:34:18.378Z,-5.83
2023-01-30T06:36:46.706Z,-5.82
2023-01-30T06:39:15.044Z,-5.81
2023-01-30T06:41:43.032Z,-5.79
2023-01-30T06:44:11.500Z,-5.76
2023-01-30T06:46:39.544Z,-5.73
2023-01-30T06:49:07.489Z,-5.71
2023-01-30T06:51:35.648Z,-5.67
2023-01-30T06:54:03.727Z,-5.54
2023-01-30T06:56:31.725Z,-5.45
2023-01-30T06:58:59.965Z,-5.43
2023-01-30T07:01:29.052Z,-5.45
2023-01-30T07:03:57.556Z,-5.41
2023-01-30T07:06:28.277Z,-5.39
2023-01-30T07:08:58.754Z,-5.45
2023-01-30T07:11:26.979Z,-5.32
2023-01-30T07:13:55.013Z,-5.24
2023-01-30T07:16:29.112Z,-5.24
2023-01-30T07:18:58.673Z,-5.23
2023-01-30T07:21:27.402Z,-5.22
2023-01-30T07:23:55.796Z,-5.13
2023-01-30T07:26:25.078Z,-5.05
2023-01-30T07:28:53.232Z,-4.88
2023-01-30T07:31:21.300Z,-4.91
2023-01-30T07:33:49.487Z,-4.82
2023-01-30T07:36:17.398Z,-4.66
2023-01-30T07:38:47.955Z,-4.54
2023-01-30T07:41:16.047Z,-4.32
2023-01-30T07:43:44.317Z,-4.14
2023-01-30T07:46:12.272Z,-4.03
2023-01-30T07:48:40.327Z,-4.15
2023-01-30T07:51:08.293Z,-3.94
2023-01-30T07:53:36.387Z,-3.81
2023-01-30T07:56:08.573Z,-3.69
2023-01-30T07:58:36.781Z,-3.50
2023-01-30T08:01:04.911Z,-3.36
2023-01-30T08:03:33.087Z,-3.24
2023-01-30T08:06:01.117Z,-3.06
2023-01-30T08:08:29.440Z,-3.08
2023-01-30T08:10:57.419Z,-3.18
2023-01-30T08:13:25.582Z,-3.24
2023-01-30T08:15:53.567Z,-3.28
2023-01-30T08:18:21.831Z,-3.33
2023-01-30T08:20:50.294Z,-3.20
2023-01-30T08:23:18.279Z,-3.05
2023-01-30T08:25:46.276Z,-2.88
2023-01-30T08:28:14.320Z,-2.72
2023-01-30T08:30:43.591Z,-2.55
2023-01-30T08:33:11.611Z,-2.61
2023-01-30T08:35:40.283Z,-2.57
2023-01-30T08:38:09.144Z,-2.38
2023-01-30T08:40:37.535Z,-2.33
2023-01-30T08:43:05.835Z,-2.19
2023-01-30T08:45:34.006Z,-2.03
2023-01-30T08:48:03.496Z,-1.89
2023-01-30T08:50:32.195Z,-1.82
2023-01-30T08:53:04.894Z,-1.88
2023-01-30T08:55:33.466Z,-1.82
2023-01-30T08:58:01.573Z,-1.70
2023-01-30T09:00:29.642Z,-1.64
2023-01-30T09:02:57.815Z,-1.45
2023-01-30T09:05:26.568Z,-1.36
2023-01-30T09:07:54.501Z,-1.31
2023-01-30T09:10:24.377Z,-1.28
2023-01-30T09:12:52.528Z,-1.33
2023-01-30T09:15:20.638Z,-1.29
2023-01-30T09:17:48.634Z,-1.20
2023-01-30T09:20:19.152Z,-1.01
2023-01-30T09:22:47.686Z,-0.82
2023-01-30T09:25:15.795Z,-0.70
2023-01-30T09:27:44.744Z,-0.77
2023-01-30T09:30:13.007Z,-0.59
2023-01-30T09:32:41.103Z,-0.50
2023-01-30T09:35:09.178Z,-0.43
2023-01-30T09:37:37.156Z,-0.38
2023-01-30T09:40:06.192Z,-0.36
2023-01-30T09:42:50.934Z,-0.35
2023-01-30T09:45:43.258Z,-0.20
2023-01-30T09:48:31.433Z,-0.12
2023-01-30T09:51:11.230Z,-0.03
2023-01-30T09:53:52.909Z,-0.28
2023-01-30T09:56:21.223Z,-0.39
2023-01-30T09:58:52.297Z,-0.15
2023-01-30T10:01:27.409Z,-0.03
2023-01-30T10:04:04.164Z,0.06
2023-01-30T10:06:36.240Z,0.08
2023-01-30T10:09:25.456Z,0.19
2023-01-30T10:11:56.531Z,0.27
2023-01-30T10:14:30.887Z,0.20
2023-01-30T10:17:17.659Z,-0.04
2023-01-30T10:19:57.879Z,-0.06
2023-01-30T10:22:48.005Z,0.26
2023-01-30T10:25:30.123Z,0.35
2023-01-30T10:28:04.175Z,0.20
2023-01-30T10:30:33.425Z,0.15
2023-01-30T10:33:07.880Z,-0.07
2023-01-30T10:35:37.755Z,-0.02
2023-01-30T10:38:12.911Z,0.01
2023-01-30T10:41:03.891Z,0.17
2023-01-30T10:43:34.752Z,0.24
2023-01-30T10:46:11.921Z,0.12
2023-01-30T10:48:52.614Z,0.23
2023-01-30T10:51:22.640Z,0.23
2023-01-30T10:53:50.897Z,0.46
2023-01-30T10:56:37.513Z,0.58
2023-01-30T10:59:05.502Z,0.61
2023-01-30T11:01:44.177Z,0.55
2023-01-30T11:04:24.252Z,0.64
2023-01-30T11:06:53.932Z,0.59
2023-01-30T11:09:24.385Z,0.65
2023-01-30T11:11:53.916Z,0.76
2023-01-30T11:14:21.835Z,0.70
2023-01-30T11:16:53.000Z,0.44
2023-01-30T11:19:25.069Z,0.46
2023-01-30T11:21:55.107Z,0.59
2023-01-30T11:24:24.895Z,0.59
2023-01-30T11:26:53.640Z,0.75
2023-01-30T11:29:24.692Z,0.96
2023-01-30T11:31:53.196Z,1.15
2023-01-30T11:34:22.818Z,1.22
2023-01-30T11:36:51.170Z,1.20
2023-01-30T11:39:23.119Z,1.23
2023-01-30T11:41:54.420Z,1.05
2023-01-30T11:44:26.555Z,0.96
2023-01-30T11:46:54.774Z,0.91
2023-01-30T11:49:48.956Z,1.03
2023-01-30T11:52:12.985Z,1.25
2023-01-30T11:54:44.576Z,1.13
2023-01-30T11:57:15.258Z,1.26
2023-01-30T11:59:43.326Z,1.04
2023-01-30T12:02:17.541Z,1.00
2023-01-30T12:04:47.001Z,1.21
2023-01-30T12:07:25.514Z,1.22
2023-01-30T12:09:54.375Z,1.38
2023-01-30T12:12:37.868Z,1.50
2023-01-30T12:15:25.079Z,1.58
2023-01-30T12:18:01.545Z,1.47
2023-01-30T12:20:42.118Z,1.59
2023-01-30T12:23:10.213Z,1.72
2023-01-30T12:25:52.666Z,1.52
2023-01-30T12:28:25.913Z,1.70
2023-01-30T12:30:59.632Z,1.77
2023-01-30T12:33:30.812Z,1.83
2023-01-30T12:36:01.937Z,1.79
2023-01-30T12:38:36.231Z,1.85
2023-01-30T12:41:17.028Z,1.79
2023-01-30T12:43:52.671Z,1.67
2023-01-30T12:46:31.398Z,1.76
2023-01-30T12:49:16.523Z,1.72
2023-01-30T12:52:03.766Z,1.66
2023-01-30T12:54:34.750Z,1.58
2023-01-30T12:57:19.289Z,1.55
2023-01-30T12:59:49.500Z,1.55
2023-01-30T13:02:36.459Z,1.55
2023-01-30T13:05:31.998Z,1.47
2023-01-30T13:08:10.783Z,1.51
2023-01-30T13:10:43.904Z,1.56
2023-01-30T13:13:17.802Z,1.57
2023-01-30T13:15:53.642Z,1.58
2023-01-30T13:18:26.766Z,1.58
2023-01-30T13:21:01.048Z,1.58
2023-01-30T13:23:44.299Z,1.61
2023-01-30T13:26:21.589Z,1.71
2023-01-30T13:28:51.905Z,1.75
2023-01-30T13:31:21.789Z,1.67
2023-01-30T13:33:51.887Z,1.61
2023-01-30T13:36:27.007Z,1.42
2023-01-30T13:39:13.123Z,1.44
2023-01-30T13:41:45.681Z,1.48
2023-01-30T13:44:38.121Z,1.38
2023-01-30T13:47:14.959Z,1.33
2023-01-30T13:50:19.032Z,1.32
2023-01-30T13:52:52.164Z,1.26
2023-01-30T13:55:29.560Z,1.16
2023-01-30T13:58:00.854Z,1.18
2023-01-30T14:00:30.871Z,1.11
2023-01-30T14:03:08.019Z,1.18
2023-01-30T14:05:54.529Z,1.13
2023-01-30T14:08:25.531Z,1.12
2023-01-30T14:10:57.539Z,1.11
2023-01-30T14:13:26.574Z,1.10
2023-01-30T14:16:04.844Z,0.98
2023-01-30T14:18:36.067Z,0.90
2023-01-30T14:21:15.060Z,0.66
2023-01-30T14:23:54.547Z,0.62
2023-01-30T14:26:41.657Z,0.63
2023-01-30T14:29:09.803Z,0.62
2023-01-30T14:31:50.462Z,0.59
2023-01-30T14:34:37.428Z,0.53
2023-01-30T14:37:25.223Z,0.47
2023-01-30T14:39:55.685Z,0.46
2023-01-30T14:42:25.280Z,0.50
2023-01-30T14:45:05.062Z,0.50
2023-01-30T14:47:37.929Z,0.43
2023-01-30T14:50:19.910Z,0.33
2023-01-30T14:52:50.452Z,0.34
2023-01-30T14:55:21.798Z,0.30
2023-01-30T14:57:57.970Z,0.24
2023-01-30T15:00:32.605Z,0.06
2023-01-30T15:03:09.720Z,0.08
2023-01-30T15:05:42.298Z,-0.12
2023-01-30T15:08:16.657Z,-0.25
2023-01-30T15:11:03.558Z,-0.39
2023-01-30T15:13:52.622Z,-0.27
2023-01-30T15:16:23.469Z,-0.24
2023-01-30T15:19:04.139Z,-0.40
2023-01-30T15:21:37.393Z,-0.62
2023-01-30T15:24:17.428Z,-0.55
2023-01-30T15:26:45.615Z,-0.61
2023-01-30T15:29:30.351Z,-0.69
2023-01-30T15:32:02.364Z,-0.66
2023-01-30T15:34:31.602Z,-0.66
2023-01-30T15:36:59.829Z,-0.54
2023-01-30T15:39:28.567Z,-0.56
2023-01-30T15:42:02.776Z,-0.64
2023-01-30T15:44:39.705Z,-0.70
2023-01-30T15:47:13.725Z,-0.66
2023-01-30T15:49:48.044Z,-0.64
2023-01-30T15:52:17.998Z,-0.60
2023-01-30T15:54:53.025Z,-0.59
2023-01-30T15:57:25.801Z,-0.54
2023-01-30T15:59:54.614Z,-0.56
2023-01-30T16:02:31.320Z,-0.52
2023-01-30T16:05:05.471Z,-0.46
2023-01-30T16:07:35.057Z,-0.46
2023-01-30T16:10:11.424Z,-0.50
2023-01-30T16:12:41.208Z,-0.41
2023-01-30T16:15:19.561Z,-0.42
2023-01-30T16:17:55.273Z,-0.39
2023-01-30T16:20:23.274Z,-0.36
2023-01-30T16:22:51.567Z,-0.34
2023-01-30T16:25:22.317Z,-0.36
2023-01-30T16:27:52.024Z,-0.40
2023-01-30T16:30:21.601Z,-0.39
2023-01-30T16:32:50.843Z,-0.39
2023-01-30T16:35:27.229Z,-0.36
2023-01-30T16:37:57.526Z,-0.35
2023-01-30T16:40:27.029Z,-0.36
2023-01-30T16:42:57.277Z,-0.38
2023-01-30T16:45:34.264Z,-0.39
2023-01-30T16:48:17.688Z,-0.40
2023-01-30T16:50:46.847Z,-0.45
2023-01-30T16:53:18.539Z,-0.41
2023-01-30T16:56:09.978Z,-0.37
2023-01-30T16:58:38.766Z,-0.36
2023-01-30T17:01:08.534Z,-0.35
2023-01-30T17:03:38.883Z,-0.36
2023-01-30T17:06:12.827Z,-0.32
2023-01-30T17:08:46.982Z,-0.33
2023-01-30T17:11:33.966Z,-0.31
2023-01-30T17:14:11.268Z,-0.31
2023-01-30T17:16:40.669Z,-0.34
2023-01-30T17:19:08.920Z,-0.35
2023-01-30T17:21:48.942Z,-0.35
2023-01-30T17:24:18.624Z,-0.35
2023-01-30T17:26:48.538Z,-0.36
2023-01-30T17:29:23.736Z,-0.35
2023-01-30T17:31:57.588Z,-0.36
2023-01-30T17:34:27.884Z,-0.37
2023-01-30T17:36:56.844Z,-0.38
2023-01-30T17:39:27.529Z,-0.44
2023-01-30T17:41:55.413Z,-0.49
2023-01-30T17:44:23.415Z,-0.53
2023-01-30T17:46:51.294Z,-0.54
2023-01-30T17:49:20.676Z,-0.52
2023-01-30T17:51:49.516Z,-0.51
2023-01-30T17:54:17.983Z,-0.53
2023-01-30T17:56:47.289Z,-0.50
2023-01-30T17:59:16.491Z,-0.49
2023-01-30T18:01:45.731Z,-0.46
2023-01-30T18:04:13.892Z,-0.47
2023-01-30T18:06:43.401Z,-0.46
2023-01-30T18:09:13.670Z,-0.46
2023-01-30T18:11:41.758Z,-0.43
2023-01-30T18:14:09.657Z,-0.40
2023-01-30T18:16:37.681Z,-0.42
2023-01-30T18:19:08.736Z,-0.45
2023-01-30T18:21:38.443Z,-0.46
2023-01-30T18:24:07.051Z,-0.45
2023-01-30T18:26:35.039Z,-0.48
2023-01-30T18:29:02.976Z,-0.47
2023-01-30T18:31:31.546Z,-0.48
2023-01-30T18:33:59.624Z,-0.49
2023-01-30T18:36:28.036Z,-0.47
2023-01-30T18:38:55.998Z,-0.51
2023-01-30T18:41:25.300Z,-0.56
2023-01-30T18:43:54.526Z,-0.57
2023-01-30T18:46:22.916Z,-0.60
2023-01-30T18:48:50.889Z,-0.52
2023-01-30T18:51:20.405Z,-0.53
2023-01-30T18:53:49.450Z,-0.54
2023-01-30T18:56:24.776Z,-0.57
2023-01-30T18:58:54.289Z,-0.50
2023-01-30T19:01:23.475Z,-0.48
2023-01-30T19:03:55.538Z,-0.48
2023-01-30T19:06:23.924Z,-0.46
2023-01-30T19:08:52.214Z,-0.47
2023-01-30T19:11:40.225Z,-0.51
2023-01-30T19:14:08.501Z,-0.50
2023-01-30T19:16:37.343Z,-0.51
2023-01-30T19:19:06.177Z,-0.54
2023-01-30T19:21:34.527Z,-0.53
2023-01-30T19:24:03.227Z,-0.52
2023-01-30T19:26:31.255Z,-0.61
2023-01-30T19:28:59.353Z,-0.53
2023-01-30T19:31:27.434Z,-0.54
2023-01-30T19:33:56.876Z,-0.57
2023-01-30T19:36:26.791Z,-0.58
2023-01-30T19:38:55.368Z,-0.59
2023-01-30T19:41:24.978Z,-0.61
2023-01-30T19:43:53.643Z,-0.63
2023-01-30T19:46:22.018Z,-0.65
2023-01-30T19:48:50.662Z,-0.70
2023-01-30T19:51:20.693Z,-0.72
2023-01-30T19:53:56.223Z,-0.69
2023-01-30T19:56:25.477Z,-0.65
2023-01-30T19:58:58.541Z,-0.64
2023-01-30T20:01:29.848Z,-0.66
2023-01-30T20:03:59.001Z,-0.64
2023-01-30T20:06:31.860Z,-0.61
2023-01-30T20:09:02.096Z,-0.66
2023-01-30T20:11:30.219Z,-0.65
2023-01-30T20:13:58.810Z,-0.66
2023-01-30T20:16:29.375Z,-0.78
2023-01-30T20:19:07.860Z,-0.77
2023-01-30T20:21:36.240Z,-0.91
2023-01-30T20:24:04.591Z,-0.85
2023-01-30T20:26:36.466Z,-0.95
2023-01-30T20:29:04.668Z,-0.94
2023-01-30T20:31:32.801Z,-1.00
2023-01-30T20:34:04.537Z,-1.03
2023-01-30T20:36:32.611Z,-1.06
2023-01-30T20:39:04.505Z,-1.03
2023-01-30T20:41:35.760Z,-1.16
2023-01-30T20:44:04.917Z,-1.15
2023-01-30T20:46:41.642Z,-1.11
2023-01-30T20:49:14.494Z,-1.04
2023-01-30T20:51:42.863Z,-0.99
2023-01-30T20:54:12.107Z,-1.01
2023-01-30T20:56:43.271Z,-0.99
2023-01-30T20:59:12.752Z,-0.98
2023-01-30T21:01:41.634Z,-1.00
2023-01-30T21:04:11.483Z,-0.96
2023-01-30T21:06:44.780Z,-0.99
2023-01-30T21:09:15.079Z,-1.03
2023-01-30T21:11:43.388Z,-1.02
2023-01-30T21:14:11.705Z,-1.06
2023-01-30T21:16:39.997Z,-1.05
2023-01-30T21:19:13.012Z,-1.12
2023-01-30T21:21:44.517Z,-1.10
2023-01-30T21:24:13.394Z,-1.07
2023-01-30T21:26:44.695Z,-1.06
2023-01-30T21:29:14.181Z,-1.09
2023-01-30T21:31:43.803Z,-1.14
2023-01-30T21:34:12.382Z,-1.09
2023-01-30T21:36:40.789Z,-1.07
2023-01-30T21:39:48.065Z,-1.06
2023-01-30T21:42:34.886Z,-1.02
2023-01-30T21:45:02.999Z,-0.98
2023-01-30T21:47:30.859Z,-0.92
2023-01-30T21:49:58.812Z,-0.94
2023-01-30T21:52:27.001Z,-0.86
2023-01-30T21:54:55.892Z,-0.79
2023-01-30T21:57:23.995Z,-0.74
2023-01-30T21:59:51.894Z,-0.79
2023-01-30T22:02:19.828Z,-0.95
2023-01-30T22:04:47.886Z,-0.89
2023-01-30T22:07:15.855Z,-0.93
2023-01-30T22:09:43.814Z,-1.00
2023-01-30T22:12:11.777Z,-1.02
2023-01-30T22:14:39.810Z,-1.06
2023-01-30T22:17:07.808Z,-1.06
2023-01-30T22:19:35.990Z,-1.06
2023-01-30T22:22:04.277Z,-1.00
2023-01-30T22:24:32.244Z,-1.00
2023-01-30T22:27:00.222Z,-0.89
2023-01-30T22:29:29.316Z,-0.86
2023-01-30T22:31:57.256Z,-0.83
2023-01-30T22:34:25.329Z,-0.87
2023-01-30T22:36:53.462Z,-0.84
2023-01-30T22:39:21.440Z,-0.78
2023-01-30T22:41:49.446Z,-0.71
2023-01-30T22:44:17.326Z,-0.67
2023-01-30T22:46:45.485Z,-0.64
2023-01-30T22:49:13.452Z,-0.67
2023-01-30T22:51:43.298Z,-0.77
2023-01-30T22:54:16.041Z,-0.73
2023-01-30T22:56:45.872Z,-0.82
2023-01-30T22:59:14.305Z,-0.89
2023-01-30T23:01:44.848Z,-0.91
2023-01-30T23:04:12.773Z,-0.78
2023-01-30T23:06:41.159Z,-0.74
2023-01-30T23:09:09.984Z,-0.74
2023-01-30T23:11:39.300Z,-0.79
2023-01-30T23:14:09.410Z,-0.80
2023-01-30T23:16:38.342Z,-0.82
2023-01-30T23:19:07.288Z,-0.86
2023-01-30T23:21:37.216Z,-0.90
2023-01-30T23:24:23.253Z,-0.87
2023-01-30T23:26:51.580Z,-0.93
2023-01-30T23:29:20.309Z,-0.91
2023-01-30T23:31:48.391Z,-0.89
2023-01-30T23:34:18.020Z,-0.88
2023-01-30T23:36:46.512Z,-0.87
2023-01-30T23:39:14.970Z,-0.85
2023-01-30T23:41:43.323Z,-0.82
2023-01-30T23:44:11.297Z,-0.88
2023-01-30T23:46:40.661Z,-0.81
2023-01-30T23:49:14.154Z,-0.74
2023-01-30T23:51:43.457Z,-0.72
2023-01-30T23:54:12.589Z,-0.70
2023-01-30T23:56:41.691Z,-0.71
2023-01-30T23:59:09.659Z,-0.72
